Terminal Aerodrome Forecast
Issued by NWS Northern Indiana

Home | Current Version | Previous Version | Graphics & Text | Print | Product List | Glossary On
Versions: 1 2 3 4 5 6 7 8 9 10 11 12 13 14 15 16 17 18
000
FTUS43 KIWX 041013 AAA
TAFFWA
TAF AMD
KFWA 041013Z 0410/0506 10005KT P6SM OVC100
     FM041700 12008KT 6SM -RA BR OVC050
     FM042100 11006KT 3SM -RA BR OVC015
     FM042300 13005KT 1 1/2SM -RASN BR OVC008
     FM050400 24008KT P6SM OVC010=

USA.gov is the U.S. government's official web portal to all federal, state and local government web resources and services.